sensor_id;sensor_type;location;lat;lon;timestamp;P1;durP1;ratioP1;P2;durP2;ratioP2
42742;SDS011;28397;44.552;-0.848;2023-04-01T00:00:15;49.08;;;10.70;;
42742;SDS011;28397;44.552;-0.848;2023-04-01T00:02:41;52.25;;;11.32;;
42742;SDS011;28397;44.552;-0.848;2023-04-01T00:05:07;48.10;;;11.23;;
42742;SDS011;28397;44.552;-0.848;2023-04-01T00:07:35;51.40;;;11.65;;
42742;SDS011;28397;44.552;-0.848;2023-04-01T00:10:08;51.15;;;10.75;;
42742;SDS011;28397;44.552;-0.848;2023-04-01T00:12:36;53.60;;;11.02;;
42742;SDS011;28397;44.552;-0.848;2023-04-01T00:15:03;47.88;;;10.25;;
42742;SDS011;28397;44.552;-0.848;2023-04-01T00:17:34;43.05;;;9.65;;
42742;SDS011;28397;44.552;-0.848;2023-04-01T00:20:00;57.08;;;11.45;;
42742;SDS011;28397;44.552;-0.848;2023-04-01T00:22:27;49.10;;;10.00;;
42742;SDS011;28397;44.552;-0.848;2023-04-01T00:24:53;40.63;;;10.20;;
42742;SDS011;28397;44.552;-0.848;2023-04-01T00:27:19;40.22;;;9.85;;
42742;SDS011;28397;44.552;-0.848;2023-04-01T00:29:45;49.50;;;9.95;;
42742;SDS011;28397;44.552;-0.848;2023-04-01T00:32:12;46.45;;;10.30;;
42742;SDS011;28397;44.552;-0.848;2023-04-01T00:34:39;34.85;;;8.40;;
42742;SDS011;28397;44.552;-0.848;2023-04-01T00:37:06;40.80;;;8.55;;
42742;SDS011;28397;44.552;-0.848;2023-04-01T00:39:33;39.90;;;9.00;;
42742;SDS011;28397;44.552;-0.848;2023-04-01T00:42:00;39.58;;;9.18;;
42742;SDS011;28397;44.552;-0.848;2023-04-01T00:44:31;41.53;;;10.10;;
42742;SDS011;28397;44.552;-0.848;2023-04-01T00:46:59;49.38;;;10.30;;
42742;SDS011;28397;44.552;-0.848;2023-04-01T00:49:33;44.97;;;9.52;;
42742;SDS011;28397;44.552;-0.848;2023-04-01T00:52:05;41.55;;;9.60;;
42742;SDS011;28397;44.552;-0.848;2023-04-01T00:54:33;45.80;;;10.50;;
42742;SDS011;28397;44.552;-0.848;2023-04-01T00:57:02;43.13;;;10.23;;
42742;SDS011;28397;44.552;-0.848;2023-04-01T00:59:34;45.22;;;10.32;;
42742;SDS011;28397;44.552;-0.848;2023-04-01T01:02:05;48.97;;;10.18;;
42742;SDS011;28397;44.552;-0.848;2023-04-01T01:04:34;42.95;;;9.95;;
42742;SDS011;28397;44.552;-0.848;2023-04-01T01:19:47;40.78;;;9.30;;
42742;SDS011;28397;44.552;-0.848;2023-04-01T01:27:58;44.92;;;9.23;;
42742;SDS011;28397;44.552;-0.848;2023-04-01T01:30:51;45.15;;;10.30;;
42742;SDS011;28397;44.552;-0.848;2023-04-01T01:35:57;43.08;;;10.32;;
42742;SDS011;28397;44.552;-0.848;2023-04-01T01:38:27;46.50;;;9.80;;
42742;SDS011;28397;44.552;-0.848;2023-04-01T01:40:56;45.13;;;9.10;;
42742;SDS011;28397;44.552;-0.848;2023-04-01T01:43:26;39.33;;;9.50;;
42742;SDS011;28397;44.552;-0.848;2023-04-01T01:46:01;47.95;;;10.35;;
42742;SDS011;28397;44.552;-0.848;2023-04-01T01:48:31;44.42;;;9.63;;
42742;SDS011;28397;44.552;-0.848;2023-04-01T01:50:58;47.70;;;10.05;;
42742;SDS011;28397;44.552;-0.848;2023-04-01T01:53:25;43.05;;;9.75;;
42742;SDS011;28397;44.552;-0.848;2023-04-01T01:55:50;46.03;;;10.52;;
42742;SDS011;28397;44.552;-0.848;2023-04-01T01:58:33;46.53;;;10.82;;
42742;SDS011;28397;44.552;-0.848;2023-04-01T02:01:06;47.08;;;10.93;;
42742;SDS011;28397;44.552;-0.848;2023-04-01T02:03:34;43.67;;;10.13;;
42742;SDS011;28397;44.552;-0.848;2023-04-01T02:06:03;43.75;;;9.30;;
42742;SDS011;28397;44.552;-0.848;2023-04-01T02:08:36;45.58;;;9.82;;
42742;SDS011;28397;44.552;-0.848;2023-04-01T02:11:13;45.10;;;9.93;;
42742;SDS011;28397;44.552;-0.848;2023-04-01T02:19:16;38.72;;;8.52;;
42742;SDS011;28397;44.552;-0.848;2023-04-01T02:21:47;38.20;;;8.57;;
42742;SDS011;28397;44.552;-0.848;2023-04-01T02:24:19;33.67;;;7.78;;
42742;SDS011;28397;44.552;-0.848;2023-04-01T02:26:48;30.55;;;7.25;;
42742;SDS011;28397;44.552;-0.848;2023-04-01T02:29:16;34.63;;;7.40;;
42742;SDS011;28397;44.552;-0.848;2023-04-01T02:31:44;35.63;;;8.07;;
42742;SDS011;28397;44.552;-0.848;2023-04-01T02:34:10;35.17;;;8.00;;
42742;SDS011;28397;44.552;-0.848;2023-04-01T02:36:37;34.05;;;6.70;;
42742;SDS011;28397;44.552;-0.848;2023-04-01T02:39:03;32.42;;;7.28;;
42742;SDS011;28397;44.552;-0.848;2023-04-01T02:41:30;33.08;;;7.28;;
42742;SDS011;28397;44.552;-0.848;2023-04-01T02:43:56;31.02;;;6.95;;
42742;SDS011;28397;44.552;-0.848;2023-04-01T02:46:23;26.58;;;6.82;;
42742;SDS011;28397;44.552;-0.848;2023-04-01T02:48:49;36.05;;;7.78;;
42742;SDS011;28397;44.552;-0.848;2023-04-01T02:51:15;34.92;;;7.68;;
42742;SDS011;28397;44.552;-0.848;2023-04-01T02:53:41;31.50;;;7.82;;
42742;SDS011;28397;44.552;-0.848;2023-04-01T02:56:06;35.95;;;7.95;;
42742;SDS011;28397;44.552;-0.848;2023-04-01T02:58:32;35.20;;;8.27;;
42742;SDS011;28397;44.552;-0.848;2023-04-01T03:00:58;35.38;;;8.32;;
42742;SDS011;28397;44.552;-0.848;2023-04-01T03:03:24;35.55;;;8.18;;
42742;SDS011;28397;44.552;-0.848;2023-04-01T03:05:50;40.13;;;8.38;;
42742;SDS011;28397;44.552;-0.848;2023-04-01T03:08:16;41.63;;;7.97;;
42742;SDS011;28397;44.552;-0.848;2023-04-01T03:10:41;40.22;;;8.38;;
42742;SDS011;28397;44.552;-0.848;2023-04-01T03:13:07;40.30;;;9.20;;
42742;SDS011;28397;44.552;-0.848;2023-04-01T03:15:33;36.50;;;8.50;;
42742;SDS011;28397;44.552;-0.848;2023-04-01T03:17:58;40.30;;;8.35;;
42742;SDS011;28397;44.552;-0.848;2023-04-01T03:20:24;41.63;;;9.20;;
42742;SDS011;28397;44.552;-0.848;2023-04-01T03:22:50;39.38;;;8.25;;
42742;SDS011;28397;44.552;-0.848;2023-04-01T03:25:16;38.42;;;9.35;;
42742;SDS011;28397;44.552;-0.848;2023-04-01T03:27:43;34.15;;;7.60;;
42742;SDS011;28397;44.552;-0.848;2023-04-01T03:30:08;30.42;;;7.10;;
42742;SDS011;28397;44.552;-0.848;2023-04-01T03:32:34;31.27;;;6.78;;
42742;SDS011;28397;44.552;-0.848;2023-04-01T03:35:00;33.22;;;7.60;;
42742;SDS011;28397;44.552;-0.848;2023-04-01T03:37:26;36.00;;;7.93;;
42742;SDS011;28397;44.552;-0.848;2023-04-01T03:39:51;37.63;;;8.75;;
42742;SDS011;28397;44.552;-0.848;2023-04-01T03:42:17;42.45;;;8.52;;
42742;SDS011;28397;44.552;-0.848;2023-04-01T03:44:43;41.90;;;8.43;;
42742;SDS011;28397;44.552;-0.848;2023-04-01T03:47:09;41.00;;;9.10;;
42742;SDS011;28397;44.552;-0.848;2023-04-01T03:49:35;39.42;;;8.68;;
42742;SDS011;28397;44.552;-0.848;2023-04-01T03:52:01;44.55;;;8.70;;
42742;SDS011;28397;44.552;-0.848;2023-04-01T03:54:26;34.60;;;8.77;;
42742;SDS011;28397;44.552;-0.848;2023-04-01T03:56:52;46.85;;;8.82;;
42742;SDS011;28397;44.552;-0.848;2023-04-01T03:59:18;40.47;;;8.98;;
42742;SDS011;28397;44.552;-0.848;2023-04-01T04:01:45;36.47;;;8.35;;
42742;SDS011;28397;44.552;-0.848;2023-04-01T04:04:12;41.28;;;8.85;;
42742;SDS011;28397;44.552;-0.848;2023-04-01T04:06:38;45.03;;;9.55;;
42742;SDS011;28397;44.552;-0.848;2023-04-01T04:09:04;39.25;;;9.50;;
42742;SDS011;28397;44.552;-0.848;2023-04-01T04:11:30;41.72;;;8.77;;
42742;SDS011;28397;44.552;-0.848;2023-04-01T04:13:57;40.60;;;10.70;;
42742;SDS011;28397;44.552;-0.848;2023-04-01T04:16:23;43.08;;;9.38;;
42742;SDS011;28397;44.552;-0.848;2023-04-01T04:18:49;40.88;;;9.15;;
42742;SDS011;28397;44.552;-0.848;2023-04-01T04:21:16;42.90;;;9.73;;
42742;SDS011;28397;44.552;-0.848;2023-04-01T04:23:41;44.08;;;9.95;;
42742;SDS011;28397;44.552;-0.848;2023-04-01T04:26:09;45.00;;;9.80;;
42742;SDS011;28397;44.552;-0.848;2023-04-01T04:28:36;38.10;;;8.70;;
42742;SDS011;28397;44.552;-0.848;2023-04-01T04:31:03;36.55;;;8.73;;
42742;SDS011;28397;44.552;-0.848;2023-04-01T04:33:30;32.47;;;7.57;;
42742;SDS011;28397;44.552;-0.848;2023-04-01T04:35:57;37.25;;;7.82;;
42742;SDS011;28397;44.552;-0.848;2023-04-01T04:38:24;33.38;;;7.57;;
42742;SDS011;28397;44.552;-0.848;2023-04-01T04:40:50;33.70;;;8.82;;
42742;SDS011;28397;44.552;-0.848;2023-04-01T04:43:17;35.33;;;8.32;;
42742;SDS011;28397;44.552;-0.848;2023-04-01T04:45:43;33.08;;;7.55;;
42742;SDS011;28397;44.552;-0.848;2023-04-01T04:48:10;38.17;;;8.15;;
42742;SDS011;28397;44.552;-0.848;2023-04-01T04:50:43;37.05;;;8.27;;
42742;SDS011;28397;44.552;-0.848;2023-04-01T04:53:10;40.75;;;8.68;;
42742;SDS011;28397;44.552;-0.848;2023-04-01T04:55:37;44.00;;;9.30;;
42742;SDS011;28397;44.552;-0.848;2023-04-01T04:58:07;41.55;;;8.93;;
42742;SDS011;28397;44.552;-0.848;2023-04-01T05:00:32;45.33;;;9.73;;
42742;SDS011;28397;44.552;-0.848;2023-04-01T05:02:58;36.38;;;8.23;;
42742;SDS011;28397;44.552;-0.848;2023-04-01T05:05:24;32.47;;;7.43;;
42742;SDS011;28397;44.552;-0.848;2023-04-01T05:07:50;30.67;;;6.72;;
42742;SDS011;28397;44.552;-0.848;2023-04-01T05:10:15;35.20;;;7.63;;
42742;SDS011;28397;44.552;-0.848;2023-04-01T05:12:41;32.28;;;7.18;;
42742;SDS011;28397;44.552;-0.848;2023-04-01T05:15:07;33.97;;;7.15;;
42742;SDS011;28397;44.552;-0.848;2023-04-01T05:17:33;37.05;;;8.25;;
42742;SDS011;28397;44.552;-0.848;2023-04-01T05:19:59;40.60;;;9.45;;
42742;SDS011;28397;44.552;-0.848;2023-04-01T05:22:26;43.05;;;8.82;;
42742;SDS011;28397;44.552;-0.848;2023-04-01T05:24:52;43.05;;;10.02;;
42742;SDS011;28397;44.552;-0.848;2023-04-01T05:27:17;52.88;;;10.60;;
42742;SDS011;28397;44.552;-0.848;2023-04-01T05:29:43;40.97;;;9.63;;
42742;SDS011;28397;44.552;-0.848;2023-04-01T05:32:09;40.95;;;8.60;;
42742;SDS011;28397;44.552;-0.848;2023-04-01T05:34:35;45.60;;;9.18;;
42742;SDS011;28397;44.552;-0.848;2023-04-01T05:37:00;45.00;;;9.38;;
42742;SDS011;28397;44.552;-0.848;2023-04-01T05:39:26;48.65;;;9.38;;
42742;SDS011;28397;44.552;-0.848;2023-04-01T05:41:52;48.08;;;10.27;;
42742;SDS011;28397;44.552;-0.848;2023-04-01T05:44:17;46.38;;;9.77;;
42742;SDS011;28397;44.552;-0.848;2023-04-01T05:46:43;48.70;;;10.52;;
42742;SDS011;28397;44.552;-0.848;2023-04-01T05:49:09;43.85;;;9.60;;
42742;SDS011;28397;44.552;-0.848;2023-04-01T05:51:34;47.88;;;11.18;;
42742;SDS011;28397;44.552;-0.848;2023-04-01T05:54:00;47.85;;;9.95;;
42742;SDS011;28397;44.552;-0.848;2023-04-01T05:56:26;47.25;;;10.85;;
42742;SDS011;28397;44.552;-0.848;2023-04-01T05:58:53;48.00;;;10.32;;
42742;SDS011;28397;44.552;-0.848;2023-04-01T06:01:19;46.72;;;10.10;;
42742;SDS011;28397;44.552;-0.848;2023-04-01T06:03:45;47.00;;;11.25;;
42742;SDS011;28397;44.552;-0.848;2023-04-01T06:06:14;43.42;;;9.90;;
42742;SDS011;28397;44.552;-0.848;2023-04-01T06:11:28;42.67;;;9.15;;
42742;SDS011;28397;44.552;-0.848;2023-04-01T06:25:18;47.83;;;9.85;;
42742;SDS011;28397;44.552;-0.848;2023-04-01T06:30:53;53.17;;;10.50;;
42742;SDS011;28397;44.552;-0.848;2023-04-01T06:36:57;37.60;;;8.80;;
42742;SDS011;28397;44.552;-0.848;2023-04-01T06:40:03;37.33;;;9.43;;
42742;SDS011;28397;44.552;-0.848;2023-04-01T06:58:39;41.97;;;10.02;;
42742;SDS011;28397;44.552;-0.848;2023-04-01T07:01:08;43.50;;;9.32;;
42742;SDS011;28397;44.552;-0.848;2023-04-01T07:03:47;40.00;;;9.70;;
42742;SDS011;28397;44.552;-0.848;2023-04-01T07:06:25;41.33;;;9.70;;
42742;SDS011;28397;44.552;-0.848;2023-04-01T07:09:12;43.40;;;9.65;;
42742;SDS011;28397;44.552;-0.848;2023-04-01T07:11:43;32.83;;;8.40;;
42742;SDS011;28397;44.552;-0.848;2023-04-01T07:16:59;35.17;;;8.32;;
42742;SDS011;28397;44.552;-0.848;2023-04-01T07:19:31;36.75;;;8.57;;
42742;SDS011;28397;44.552;-0.848;2023-04-01T07:24:49;39.30;;;8.07;;
42742;SDS011;28397;44.552;-0.848;2023-04-01T07:27:18;33.55;;;8.93;;
42742;SDS011;28397;44.552;-0.848;2023-04-01T07:29:43;29.52;;;7.25;;
42742;SDS011;28397;44.552;-0.848;2023-04-01T07:37:53;39.75;;;8.55;;
42742;SDS011;28397;44.552;-0.848;2023-04-01T07:44:00;35.08;;;8.23;;
42742;SDS011;28397;44.552;-0.848;2023-04-01T08:07:19;42.33;;;8.48;;
42742;SDS011;28397;44.552;-0.848;2023-04-01T08:20:33;30.25;;;7.55;;
42742;SDS011;28397;44.552;-0.848;2023-04-01T08:23:27;34.92;;;8.30;;
42742;SDS011;28397;44.552;-0.848;2023-04-01T08:26:06;32.88;;;7.30;;
42742;SDS011;28397;44.552;-0.848;2023-04-01T08:28:54;33.00;;;7.53;;
42742;SDS011;28397;44.552;-0.848;2023-04-01T08:33:59;36.58;;;8.55;;
42742;SDS011;28397;44.552;-0.848;2023-04-01T08:36:28;31.25;;;7.07;;
42742;SDS011;28397;44.552;-0.848;2023-04-01T08:44:21;31.38;;;7.53;;
42742;SDS011;28397;44.552;-0.848;2023-04-01T09:06:06;24.17;;;6.35;;
42742;SDS011;28397;44.552;-0.848;2023-04-01T09:21:36;25.42;;;5.53;;
42742;SDS011;28397;44.552;-0.848;2023-04-01T09:27:25;26.20;;;6.47;;
42742;SDS011;28397;44.552;-0.848;2023-04-01T09:30:09;21.90;;;5.72;;
42742;SDS011;28397;44.552;-0.848;2023-04-01T09:38:28;32.53;;;6.90;;
42742;SDS011;28397;44.552;-0.848;2023-04-01T09:41:15;28.25;;;6.05;;
42742;SDS011;28397;44.552;-0.848;2023-04-01T09:43:57;28.83;;;6.32;;
42742;SDS011;28397;44.552;-0.848;2023-04-01T09:49:29;30.58;;;7.22;;
42742;SDS011;28397;44.552;-0.848;2023-04-01T09:52:08;28.15;;;6.43;;
42742;SDS011;28397;44.552;-0.848;2023-04-01T10:59:28;28.15;;;7.03;;
42742;SDS011;28397;44.552;-0.848;2023-04-01T11:07:58;32.63;;;7.18;;
42742;SDS011;28397;44.552;-0.848;2023-04-01T11:22:21;27.90;;;7.28;;
42742;SDS011;28397;44.552;-0.848;2023-04-01T11:24:53;26.50;;;5.88;;
42742;SDS011;28397;44.552;-0.848;2023-04-01T11:52:51;16.35;;;3.28;;
42742;SDS011;28397;44.552;-0.848;2023-04-01T12:11:41;20.60;;;4.65;;
42742;SDS011;28397;44.552;-0.848;2023-04-01T12:14:20;20.90;;;4.97;;
42742;SDS011;28397;44.552;-0.848;2023-04-01T12:44:00;21.45;;;4.78;;
42742;SDS011;28397;44.552;-0.848;2023-04-01T13:12:29;19.08;;;4.97;;
42742;SDS011;28397;44.552;-0.848;2023-04-01T13:17:36;19.20;;;4.95;;
42742;SDS011;28397;44.552;-0.848;2023-04-01T13:23:07;22.83;;;5.80;;
42742;SDS011;28397;44.552;-0.848;2023-04-01T13:25:51;22.90;;;5.50;;
42742;SDS011;28397;44.552;-0.848;2023-04-01T13:28:43;18.25;;;4.38;;
42742;SDS011;28397;44.552;-0.848;2023-04-01T13:43:23;9.85;;;2.50;;
42742;SDS011;28397;44.552;-0.848;2023-04-01T13:48:50;9.30;;;2.65;;
42742;SDS011;28397;44.552;-0.848;2023-04-01T14:11:56;14.50;;;3.13;;
42742;SDS011;28397;44.552;-0.848;2023-04-01T14:31:16;14.55;;;3.65;;
42742;SDS011;28397;44.552;-0.848;2023-04-01T14:39:38;17.25;;;4.32;;
42742;SDS011;28397;44.552;-0.848;2023-04-01T14:50:49;17.58;;;3.90;;
42742;SDS011;28397;44.552;-0.848;2023-04-01T14:58:17;21.33;;;4.10;;
42742;SDS011;28397;44.552;-0.848;2023-04-01T15:00:54;15.30;;;3.95;;
42742;SDS011;28397;44.552;-0.848;2023-04-01T15:09:10;15.88;;;3.72;;
42742;SDS011;28397;44.552;-0.848;2023-04-01T15:28:56;14.13;;;3.47;;
42742;SDS011;28397;44.552;-0.848;2023-04-01T15:31:50;17.00;;;3.67;;
42742;SDS011;28397;44.552;-0.848;2023-04-01T15:34:29;16.60;;;3.53;;
42742;SDS011;28397;44.552;-0.848;2023-04-01T15:37:04;14.23;;;3.33;;
42742;SDS011;28397;44.552;-0.848;2023-04-01T15:59:50;15.10;;;3.42;;
42742;SDS011;28397;44.552;-0.848;2023-04-01T16:02:30;11.93;;;3.05;;
42742;SDS011;28397;44.552;-0.848;2023-04-01T16:13:18;12.75;;;4.15;;
42742;SDS011;28397;44.552;-0.848;2023-04-01T16:15:55;15.43;;;3.92;;
42742;SDS011;28397;44.552;-0.848;2023-04-01T16:29:51;18.48;;;4.57;;
42742;SDS011;28397;44.552;-0.848;2023-04-01T16:32:44;17.73;;;4.50;;
42742;SDS011;28397;44.552;-0.848;2023-04-01T16:37:49;15.48;;;3.60;;
42742;SDS011;28397;44.552;-0.848;2023-04-01T16:43:21;14.85;;;3.78;;
42742;SDS011;28397;44.552;-0.848;2023-04-01T16:49:04;16.38;;;3.92;;
42742;SDS011;28397;44.552;-0.848;2023-04-01T16:51:47;15.13;;;3.65;;
42742;SDS011;28397;44.552;-0.848;2023-04-01T16:54:31;12.13;;;2.90;;
42742;SDS011;28397;44.552;-0.848;2023-04-01T17:05:38;9.75;;;2.65;;
42742;SDS011;28397;44.552;-0.848;2023-04-01T17:14:00;13.48;;;3.70;;
42742;SDS011;28397;44.552;-0.848;2023-04-01T17:22:34;14.25;;;3.65;;
42742;SDS011;28397;44.552;-0.848;2023-04-01T17:25:19;14.27;;;3.53;;
42742;SDS011;28397;44.552;-0.848;2023-04-01T17:30:44;12.10;;;4.30;;
42742;SDS011;28397;44.552;-0.848;2023-04-01T17:36:44;15.77;;;3.95;;
42742;SDS011;28397;44.552;-0.848;2023-04-01T17:42:19;14.93;;;3.90;;
42742;SDS011;28397;44.552;-0.848;2023-04-01T17:47:47;16.13;;;3.45;;
42742;SDS011;28397;44.552;-0.848;2023-04-01T18:05:00;15.82;;;3.80;;
42742;SDS011;28397;44.552;-0.848;2023-04-01T18:13:36;16.13;;;4.00;;
42742;SDS011;28397;44.552;-0.848;2023-04-01T18:16:31;18.08;;;3.95;;
42742;SDS011;28397;44.552;-0.848;2023-04-01T18:25:01;17.13;;;4.00;;
42742;SDS011;28397;44.552;-0.848;2023-04-01T18:27:40;18.48;;;4.20;;
42742;SDS011;28397;44.552;-0.848;2023-04-01T18:30:42;16.23;;;3.70;;
42742;SDS011;28397;44.552;-0.848;2023-04-01T18:44:47;16.33;;;3.87;;
42742;SDS011;28397;44.552;-0.848;2023-04-01T18:47:25;16.60;;;3.63;;
42742;SDS011;28397;44.552;-0.848;2023-04-01T18:50:06;16.70;;;3.63;;
42742;SDS011;28397;44.552;-0.848;2023-04-01T18:52:37;11.77;;;3.38;;
42742;SDS011;28397;44.552;-0.848;2023-04-01T19:06:42;11.40;;;2.78;;
42742;SDS011;28397;44.552;-0.848;2023-04-01T19:17:32;10.88;;;2.30;;
42742;SDS011;28397;44.552;-0.848;2023-04-01T19:34:14;9.20;;;1.50;;
42742;SDS011;28397;44.552;-0.848;2023-04-01T19:36:55;10.50;;;2.08;;
42742;SDS011;28397;44.552;-0.848;2023-04-01T19:39:54;13.93;;;3.03;;
42742;SDS011;28397;44.552;-0.848;2023-04-01T19:45:22;18.23;;;3.42;;
42742;SDS011;28397;44.552;-0.848;2023-04-01T19:51:07;18.17;;;3.42;;
42742;SDS011;28397;44.552;-0.848;2023-04-01T19:56:21;18.98;;;3.88;;
42742;SDS011;28397;44.552;-0.848;2023-04-01T20:01:57;16.95;;;3.67;;
42742;SDS011;28397;44.552;-0.848;2023-04-01T20:04:48;24.73;;;4.15;;
42742;SDS011;28397;44.552;-0.848;2023-04-01T20:07:38;20.95;;;3.75;;
42742;SDS011;28397;44.552;-0.848;2023-04-01T20:15:36;21.35;;;4.13;;
42742;SDS011;28397;44.552;-0.848;2023-04-01T20:18:12;20.63;;;4.30;;
42742;SDS011;28397;44.552;-0.848;2023-04-01T20:20:41;17.17;;;4.60;;
42742;SDS011;28397;44.552;-0.848;2023-04-01T20:23:34;28.67;;;5.38;;
42742;SDS011;28397;44.552;-0.848;2023-04-01T20:26:32;27.95;;;5.30;;
42742;SDS011;28397;44.552;-0.848;2023-04-01T20:37:45;27.65;;;6.55;;
42742;SDS011;28397;44.552;-0.848;2023-04-01T20:40:34;28.92;;;6.22;;
42742;SDS011;28397;44.552;-0.848;2023-04-01T20:43:23;27.92;;;5.75;;
42742;SDS011;28397;44.552;-0.848;2023-04-01T20:46:22;27.13;;;5.90;;
42742;SDS011;28397;44.552;-0.848;2023-04-01T20:57:27;26.77;;;5.75;;
42742;SDS011;28397;44.552;-0.848;2023-04-01T21:00:02;25.08;;;5.05;;
42742;SDS011;28397;44.552;-0.848;2023-04-01T21:13:56;27.83;;;6.10;;
42742;SDS011;28397;44.552;-0.848;2023-04-01T21:22:29;22.48;;;4.93;;
42742;SDS011;28397;44.552;-0.848;2023-04-01T21:33:42;25.23;;;4.75;;
42742;SDS011;28397;44.552;-0.848;2023-04-01T21:36:30;24.15;;;4.97;;
42742;SDS011;28397;44.552;-0.848;2023-04-01T22:06:48;20.02;;;4.65;;
42742;SDS011;28397;44.552;-0.848;2023-04-01T22:09:32;25.27;;;5.60;;
42742;SDS011;28397;44.552;-0.848;2023-04-01T22:12:11;21.67;;;4.80;;
42742;SDS011;28397;44.552;-0.848;2023-04-01T22:17:59;25.23;;;5.35;;
42742;SDS011;28397;44.552;-0.848;2023-04-01T22:20:59;19.30;;;5.20;;
42742;SDS011;28397;44.552;-0.848;2023-04-01T22:24:03;26.95;;;5.75;;
42742;SDS011;28397;44.552;-0.848;2023-04-01T22:29:27;24.02;;;5.18;;
42742;SDS011;28397;44.552;-0.848;2023-04-01T22:32:05;24.00;;;5.28;;
42742;SDS011;28397;44.552;-0.848;2023-04-01T22:56:23;19.38;;;4.32;;
42742;SDS011;28397;44.552;-0.848;2023-04-01T23:01:47;18.98;;;4.30;;
42742;SDS011;28397;44.552;-0.848;2023-04-01T23:04:20;23.15;;;4.82;;
42742;SDS011;28397;44.552;-0.848;2023-04-01T23:06:51;19.63;;;4.40;;
42742;SDS011;28397;44.552;-0.848;2023-04-01T23:09:28;17.58;;;4.43;;
42742;SDS011;28397;44.552;-0.848;2023-04-01T23:12:01;20.13;;;4.30;;
42742;SDS011;28397;44.552;-0.848;2023-04-01T23:17:07;19.80;;;4.70;;
42742;SDS011;28397;44.552;-0.848;2023-04-01T23:19:41;24.15;;;4.63;;
42742;SDS011;28397;44.552;-0.848;2023-04-01T23:25:18;22.50;;;4.97;;
42742;SDS011;28397;44.552;-0.848;2023-04-01T23:30:54;20.73;;;4.55;;
42742;SDS011;28397;44.552;-0.848;2023-04-01T23:33:23;25.80;;;5.68;;
42742;SDS011;28397;44.552;-0.848;2023-04-01T23:35:55;19.85;;;4.70;;
42742;SDS011;28397;44.552;-0.848;2023-04-01T23:38:31;23.85;;;4.90;;
42742;SDS011;28397;44.552;-0.848;2023-04-01T23:41:02;19.60;;;4.20;;
42742;SDS011;28397;44.552;-0.848;2023-04-01T23:43:30;20.58;;;4.60;;
42742;SDS011;28397;44.552;-0.848;2023-04-01T23:46:02;18.15;;;4.38;;
42742;SDS011;28397;44.552;-0.848;2023-04-01T23:48:39;22.40;;;4.55;;
42742;SDS011;28397;44.552;-0.848;2023-04-01T23:51:18;19.27;;;4.38;;
42742;SDS011;28397;44.552;-0.848;2023-04-01T23:53:48;25.98;;;4.97;;
42742;SDS011;28397;44.552;-0.848;2023-04-01T23:56:34;21.52;;;4.40;;
42742;SDS011;28397;44.552;-0.848;2023-04-01T23:59:03;27.92;;;4.38;;
